createdAt,value
2016-01-24T12:28:24.864Z,24198
2016-01-24T12:28:36.567Z,24250
2016-01-24T12:28:51.632Z,24254
2016-01-24T12:29:04.726Z,24288
2016-01-24T12:29:16.413Z,24269
2016-01-24T12:29:31.163Z,24276
2016-01-24T12:36:06.621Z,9813
2016-01-24T12:36:18.980Z,9802
2016-01-24T12:36:32.043Z,9791
2016-01-24T12:36:43.840Z,9794
2016-01-24T12:36:56.579Z,9797
2016-01-24T12:37:08.360Z,9782
2016-01-24T12:37:21.079Z,9777
2016-01-24T12:37:32.829Z,9775
2016-01-24T12:37:44.595Z,9765
2016-01-24T12:37:57.316Z,9769
2016-01-24T12:38:11.238Z,9767
2016-01-24T12:38:23.270Z,9797
2016-01-24T12:38:34.880Z,9814
2016-01-24T12:38:46.645Z,9859
2016-01-24T12:38:58.852Z,9899
2016-01-24T12:39:10.852Z,9944
2016-01-24T12:39:23.633Z,10029
2016-01-24T12:39:36.305Z,10108
2016-01-24T12:39:49.258Z,10170
2016-01-24T12:40:05.463Z,10259
2016-01-24T12:40:17.150Z,10340
2016-01-24T12:40:30.041Z,10402
2016-01-24T12:40:51.385Z,10524
2016-01-24T12:41:03.154Z,10605
2016-01-24T12:41:15.327Z,10659
2016-01-24T12:41:27.671Z,10737
2016-01-24T12:41:39.405Z,10797
2016-01-24T12:41:51.530Z,10859
2016-01-24T12:42:04.471Z,10917
2016-01-24T12:42:16.815Z,10990
2016-01-24T12:42:29.549Z,11044
2016-01-24T12:42:41.175Z,11116
2016-01-24T12:42:52.894Z,11187
2016-01-24T12:43:04.990Z,11247
2016-01-24T12:43:17.505Z,11311
2016-01-24T12:43:29.224Z,11374
2016-01-24T12:43:42.552Z,11421
2016-01-24T12:43:55.177Z,11478
2016-01-24T12:44:06.946Z,11551
2016-01-24T12:44:18.618Z,11614
2016-01-24T12:44:30.961Z,11684
2016-01-24T12:44:42.930Z,11754
2016-01-24T12:44:55.664Z,11840
2016-01-24T12:45:08.463Z,11934
2016-01-24T12:45:20.573Z,12006
2016-01-24T12:45:36.884Z,12108
2016-01-24T12:45:49.275Z,12167
2016-01-24T12:46:03.340Z,12245
2016-01-24T12:46:15.075Z,12289
2016-01-24T12:46:26.918Z,12325
2016-01-24T12:46:38.653Z,12369
2016-01-24T12:46:50.340Z,12381
2016-01-24T12:47:02.110Z,12413
2016-01-24T12:47:13.907Z,12482
2016-01-24T12:47:26.032Z,12567
2016-01-24T12:47:37.813Z,12643
2016-01-24T12:47:50.454Z,12717
2016-01-24T12:48:02.768Z,12800
2016-01-24T12:48:14.534Z,12894
2016-01-24T12:48:26.597Z,12961
2016-01-24T12:48:38.816Z,13010
2016-01-24T12:48:54.160Z,13103
2016-01-24T12:49:07.506Z,13160
2016-01-24T12:49:20.397Z,13264
2016-01-24T12:49:32.147Z,13286
2016-01-24T12:49:45.038Z,13345
2016-01-24T12:49:57.366Z,13397
2016-01-24T12:50:09.041Z,13458
2016-01-24T12:50:21.556Z,13464
2016-01-24T12:50:34.338Z,13542
2016-01-24T12:50:46.197Z,13618
2016-01-24T12:50:58.181Z,13676
2016-01-24T12:51:10.699Z,13755
2016-01-24T12:51:22.405Z,13813
2016-01-24T12:51:34.046Z,13909
2016-01-24T12:51:45.764Z,13969
2016-01-24T12:51:57.561Z,14031
2016-01-24T12:52:09.861Z,14084
2016-01-24T12:52:21.736Z,14083
2016-01-24T12:52:33.439Z,14109
2016-01-24T12:52:45.565Z,14131
2016-01-24T12:52:58.128Z,14134
2016-01-24T12:53:10.271Z,14121
2016-01-24T12:53:21.990Z,14132
2016-01-24T12:53:34.271Z,14154
2016-01-24T12:53:46.428Z,14184
2016-01-24T12:53:58.115Z,14220
2016-01-24T12:54:09.867Z,14321
2016-01-24T12:54:21.617Z,14332
2016-01-24T12:54:33.336Z,14409
2016-01-24T12:54:45.930Z,14468
2016-01-24T12:54:57.664Z,14658
2016-01-24T12:55:09.511Z,14754
2016-01-24T12:55:22.276Z,14970
2016-01-24T12:55:34.558Z,14782
2016-01-24T12:55:46.308Z,14835
2016-01-24T12:55:58.058Z,14737
2016-01-24T12:56:09.811Z,14787
2016-01-24T12:56:21.561Z,14855
2016-01-24T12:56:33.654Z,14900
2016-01-24T12:56:45.326Z,14833
2016-01-24T12:56:57.795Z,14658
2016-01-24T12:57:10.111Z,14671
2016-01-24T12:57:22.423Z,14767
2016-01-24T12:57:34.079Z,14758
2016-01-24T12:57:45.798Z,14633
2016-01-24T12:57:57.486Z,14570
2016-01-24T12:58:09.301Z,14581
2016-01-24T12:58:21.332Z,14541
2016-01-24T12:58:32.928Z,14517
2016-01-24T12:58:44.662Z,14513
2016-01-24T12:58:57.256Z,14442
2016-01-24T12:59:10.026Z,14458
2016-01-24T12:59:21.791Z,14399
2016-01-24T12:59:33.494Z,14341
2016-01-24T12:59:46.823Z,14254
2016-01-24T12:59:58.448Z,14205
2016-01-24T13:00:11.450Z,14127
2016-01-24T13:00:31.231Z,14129
2016-01-24T13:00:43.200Z,14163
2016-01-24T13:00:55.246Z,14181
2016-01-24T13:01:06.921Z,14289
2016-01-24T13:01:19.015Z,14299
2016-01-24T13:01:32.033Z,14279
2016-01-24T13:01:44.314Z,14314
2016-01-24T13:01:56.517Z,14376
2016-01-24T13:02:13.097Z,14429
2016-01-24T13:02:25.628Z,14508
2016-01-24T13:02:37.832Z,14536
2016-01-24T13:02:49.519Z,14578
2016-01-24T13:03:01.129Z,14640
2016-01-24T13:03:13.445Z,14657
2016-01-24T13:03:26.320Z,14667
2016-01-24T13:03:37.898Z,14689
2016-01-24T13:03:49.570Z,14685
2016-01-24T13:04:01.211Z,14671
2016-01-24T13:04:14.214Z,14667
2016-01-24T13:04:26.760Z,14670
2016-01-24T13:04:39.370Z,14665
2016-01-24T13:04:51.167Z,14600
2016-01-24T13:05:03.167Z,14539
2016-01-24T13:05:14.842Z,14406
2016-01-24T13:05:26.607Z,14288
2016-01-24T13:05:39.763Z,14095
2016-01-24T13:05:51.548Z,13966
2016-01-24T13:06:03.157Z,13873
2016-01-24T13:06:14.846Z,13752
2016-01-24T13:06:27.987Z,13588
2016-01-24T13:06:39.690Z,13436
2016-01-24T13:06:51.940Z,13310
2016-01-24T13:07:04.268Z,13137
2016-01-24T13:07:17.601Z,12943
2016-01-24T13:07:30.664Z,12721
2016-01-24T13:07:50.117Z,12484
2016-01-24T13:08:01.976Z,12454
2016-01-24T13:08:13.745Z,12044
2016-01-24T13:08:25.448Z,11696
2016-01-24T13:08:37.698Z,11359
2016-01-24T13:08:49.917Z,11093
2016-01-24T13:09:01.964Z,10919
2016-01-24T13:09:14.264Z,10725
2016-01-24T13:09:27.685Z,10520
2016-01-24T13:09:40.232Z,10390
2016-01-24T13:09:51.982Z,10225
2016-01-24T13:10:04.545Z,10059
2016-01-24T13:10:16.329Z,9956
2016-01-24T13:10:27.923Z,9837
2016-01-24T13:10:40.579Z,9653
2016-01-24T13:10:52.813Z,9517
2016-01-24T13:11:04.485Z,9406
2016-01-24T13:11:16.113Z,9321
2016-01-24T13:11:28.801Z,9225
2016-01-24T13:11:41.225Z,9122
2016-01-24T13:11:53.475Z,8993
2016-01-24T13:12:05.084Z,8929
2016-01-24T13:12:16.727Z,8865
2016-01-24T13:12:28.930Z,8819
2016-01-24T13:12:40.930Z,8778
2016-01-24T13:12:54.867Z,8726
2016-01-24T13:13:07.198Z,8680
2016-01-24T13:13:18.902Z,8651
2016-01-24T13:13:30.917Z,8623
2016-01-24T13:13:42.558Z,8602
2016-01-24T13:13:54.152Z,8590
2016-01-24T13:14:05.870Z,8574
2016-01-24T13:14:17.592Z,8569
2016-01-24T13:14:29.233Z,8572
2016-01-24T13:14:40.842Z,8572
2016-01-24T13:14:52.561Z,8583
2016-01-24T13:15:04.951Z,8601
2016-01-24T13:15:17.126Z,8620
2016-01-24T13:15:28.908Z,8649
2016-01-24T13:15:40.595Z,8665
2016-01-24T13:15:52.376Z,8699
2016-01-24T13:16:04.955Z,8738
2016-01-24T13:16:17.723Z,8793
2016-01-24T13:16:29.770Z,8858
2016-01-24T13:16:43.567Z,8931
2016-01-24T13:16:56.041Z,8993
2016-01-24T13:17:07.635Z,9077
2016-01-24T13:17:19.888Z,9155
2016-01-24T13:17:32.544Z,9268
2016-01-24T13:17:44.279Z,9401
2016-01-24T13:17:56.091Z,9526
2016-01-24T13:18:08.844Z,9672
2016-01-24T13:18:20.547Z,9813
2016-01-24T13:18:32.297Z,9909
2016-01-24T13:18:44.657Z,9512
2016-01-24T13:18:56.297Z,9655
2016-01-24T13:19:08.047Z,9806
2016-01-24T13:19:20.565Z,10111
2016-01-24T13:19:35.346Z,10338
2016-01-24T13:19:47.299Z,10468
2016-01-24T13:20:03.190Z,10512
2016-01-24T13:20:23.412Z,10672
2016-01-24T13:20:35.490Z,10782
2016-01-24T13:20:47.162Z,10859
2016-01-24T13:20:58.849Z,10794
2016-01-24T13:21:11.445Z,11628
2016-01-24T13:21:23.086Z,11690
2016-01-24T13:21:35.914Z,11743
2016-01-24T13:21:48.400Z,11832
2016-01-24T13:22:00.556Z,11865
2016-01-24T13:22:12.748Z,11863
2016-01-24T13:22:24.888Z,11859
2016-01-24T13:22:36.779Z,11829
2016-01-24T13:22:48.560Z,11780
2016-01-24T13:23:00.263Z,11722
2016-01-24T13:23:11.984Z,11669
2016-01-24T13:23:24.687Z,11582
2016-01-24T13:23:36.297Z,11480
2016-01-24T13:23:47.890Z,11372
2016-01-24T13:24:00.390Z,11242
2016-01-24T13:24:12.956Z,11128
2016-01-24T13:24:25.268Z,10992
2016-01-24T13:24:36.956Z,10878
2016-01-24T13:24:49.253Z,10774
2016-01-24T13:25:05.440Z,10603
2016-01-24T13:25:17.114Z,10465
2016-01-24T13:25:33.005Z,10352
2016-01-24T13:25:44.817Z,10235
2016-01-24T13:25:56.536Z,10134
2016-01-24T13:26:09.335Z,10015
2016-01-24T13:26:21.979Z,9875
2016-01-24T13:26:33.682Z,9771
2016-01-24T13:26:45.338Z,9665
2016-01-24T13:26:58.854Z,9577
2016-01-24T13:27:10.888Z,9457
2016-01-24T13:27:22.888Z,9357
2016-01-24T13:27:34.389Z,9235
2016-01-24T13:27:48.264Z,9110
2016-01-24T13:28:00.404Z,8996
2016-01-24T13:28:12.406Z,8919
2016-01-24T13:28:24.094Z,8825
2016-01-24T13:28:35.813Z,8753
2016-01-24T13:28:47.563Z,8678
2016-01-24T13:28:59.922Z,8603
2016-01-24T13:29:12.253Z,8517
2016-01-24T13:29:24.550Z,8434
2016-01-24T13:29:36.534Z,8362
2016-01-24T13:29:48.238Z,8287
2016-01-24T13:29:59.894Z,8211
2016-01-24T13:30:11.568Z,8133
2016-01-24T13:30:23.802Z,8058
2016-01-24T13:30:35.458Z,7991
2016-01-24T13:30:47.052Z,7942
2016-01-24T13:30:59.240Z,7883
2016-01-24T13:31:11.349Z,7836
2016-01-24T13:31:23.353Z,7810
2016-01-24T13:31:35.009Z,7790
2016-01-24T13:31:47.072Z,7764
2016-01-24T13:31:58.745Z,7748
2016-01-24T13:32:10.526Z,7751
2016-01-24T13:32:22.262Z,7740
2016-01-24T13:32:34.856Z,7740
2016-01-24T13:32:46.559Z,7737
2016-01-24T13:32:58.543Z,7731
2016-01-24T13:33:10.278Z,7736
2016-01-24T13:33:21.984Z,7752
2016-01-24T13:33:33.734Z,7754
2016-01-24T13:33:45.359Z,7777
2016-01-24T13:33:56.937Z,7787
2016-01-24T13:34:10.000Z,7818
2016-01-24T13:34:21.737Z,7839
2016-01-24T13:34:33.346Z,7849
2016-01-24T13:34:45.003Z,7861
2016-01-24T13:34:56.676Z,7866
2016-01-24T13:35:09.958Z,7874
2016-01-24T13:35:21.741Z,7863
2016-01-24T13:35:34.272Z,7848
2016-01-24T13:35:45.928Z,7824
2016-01-24T13:35:57.647Z,7793
2016-01-24T13:36:09.710Z,7765
2016-01-24T13:36:21.401Z,7726
2016-01-24T13:36:33.776Z,7679
2016-01-24T13:36:46.276Z,7638
2016-01-24T13:36:58.245Z,7586
2016-01-24T13:37:09.901Z,7545
2016-01-24T13:37:21.513Z,7507
2016-01-24T13:37:33.248Z,7458
2016-01-24T13:37:45.266Z,7423
2016-01-24T13:37:57.454Z,7377
2016-01-24T13:38:09.579Z,7353
2016-01-24T13:38:21.300Z,7325
2016-01-24T13:38:33.378Z,7309
2016-01-24T13:38:45.034Z,7300
2016-01-24T13:38:56.784Z,7299
2016-01-24T13:39:08.550Z,7292
2016-01-24T13:39:20.256Z,7304
2016-01-24T13:39:32.459Z,7350
2016-01-24T13:39:44.834Z,7397
2016-01-24T13:39:57.100Z,7436
2016-01-24T13:40:08.740Z,7494
2016-01-24T13:40:20.493Z,7553
2016-01-24T13:40:32.993Z,7626
2016-01-24T13:40:44.682Z,7687
2016-01-24T13:40:57.119Z,7759
2016-01-24T13:41:08.947Z,7826
2016-01-24T13:41:21.513Z,7895
2016-01-24T13:41:33.216Z,7970
2016-01-24T13:41:49.497Z,8044
2016-01-24T13:42:01.200Z,8087
2016-01-24T13:42:12.998Z,8147
2016-01-24T13:42:24.860Z,8188
2016-01-24T13:42:36.939Z,8232
2016-01-24T13:42:48.657Z,8257
2016-01-24T13:43:00.360Z,8285
2016-01-24T13:43:12.470Z,8317
2016-01-24T13:43:24.191Z,8348
2016-01-24T13:43:35.987Z,8368
2016-01-24T13:43:47.659Z,8413
2016-01-24T13:43:59.378Z,8444
2016-01-24T13:44:10.941Z,8479
2016-01-24T13:44:24.569Z,8513
2016-01-24T13:44:38.662Z,8557
2016-01-24T13:44:50.756Z,8581
2016-01-24T13:45:02.429Z,8650
2016-01-24T13:45:14.507Z,8692
2016-01-24T13:45:26.198Z,8745
2016-01-24T13:45:38.823Z,8802
2016-01-24T13:45:51.666Z,8878
2016-01-24T13:46:03.416Z,8954
2016-01-24T13:46:15.669Z,9025
2016-01-24T13:46:28.216Z,9116
2016-01-24T13:46:43.499Z,9193
2016-01-24T13:46:55.140Z,9286
2016-01-24T13:47:06.859Z,9363
2016-01-24T13:47:19.532Z,9422
2016-01-24T13:47:31.172Z,9490
2016-01-24T13:47:43.547Z,9541
2016-01-24T13:47:57.235Z,9619
2016-01-24T13:48:08.797Z,9661
2016-01-24T13:48:20.410Z,9711
2016-01-24T13:48:32.035Z,9780
2016-01-24T13:48:44.738Z,9810
2016-01-24T13:48:57.332Z,9877
2016-01-24T13:49:09.925Z,9934
2016-01-24T13:49:22.209Z,9973
2016-01-24T13:49:34.287Z,10022
2016-01-24T13:49:46.037Z,10070
2016-01-24T13:49:57.959Z,10082
2016-01-24T13:50:09.646Z,10096
2016-01-24T13:50:21.352Z,10119
2016-01-24T13:50:33.758Z,10143
2016-01-24T13:50:46.524Z,10183
2016-01-24T13:50:58.167Z,10195
2016-01-24T13:51:09.776Z,10254
2016-01-24T13:51:21.466Z,10296
2016-01-24T13:51:33.154Z,10302
2016-01-24T13:51:44.795Z,10284
2016-01-24T13:51:57.591Z,10261
2016-01-24T13:52:09.857Z,10202
2016-01-24T13:52:21.594Z,10128
2016-01-24T13:52:33.266Z,10075
2016-01-24T13:52:45.360Z,9979
2016-01-24T13:52:57.001Z,9943
2016-01-24T13:53:09.063Z,9888
2016-01-24T13:53:20.768Z,9857
2016-01-24T13:53:32.878Z,9818
2016-01-24T13:53:44.518Z,9754
2016-01-24T13:53:56.175Z,9702
2016-01-24T13:54:09.253Z,9671
2016-01-24T13:54:20.974Z,9605
2016-01-24T13:54:34.193Z,9479
2016-01-24T13:54:46.678Z,9344
2016-01-24T13:54:58.443Z,9216
2016-01-24T13:55:10.537Z,9107
2016-01-24T13:55:22.196Z,8987
2016-01-24T13:55:33.931Z,8864
2016-01-24T13:55:45.493Z,8755
2016-01-24T13:56:01.352Z,8603
2016-01-24T13:56:13.009Z,8505
2016-01-24T13:56:25.293Z,8399
2016-01-24T13:56:38.949Z,8271
2016-01-24T13:56:51.169Z,8167
2016-01-24T13:57:02.810Z,8066
2016-01-24T13:57:14.763Z,7954
2016-01-24T13:57:26.438Z,7855
2016-01-24T13:57:38.047Z,7754
2016-01-24T13:57:50.125Z,7666
2016-01-24T13:58:01.813Z,7564
2016-01-24T13:58:13.547Z,7484
2016-01-24T13:58:25.143Z,7404
2016-01-24T13:58:36.768Z,7324
2016-01-24T13:58:48.455Z,7244
2016-01-24T13:59:00.565Z,7154
2016-01-24T13:59:13.158Z,7063
2016-01-24T13:59:25.318Z,6983
2016-01-24T13:59:37.631Z,6914
2016-01-24T13:59:49.350Z,6841
2016-01-24T14:00:01.365Z,6758
2016-01-24T14:00:13.615Z,6683
2016-01-24T14:00:25.727Z,6611
2016-01-24T14:00:37.821Z,6533
2016-01-24T14:00:49.539Z,6469
2016-01-24T14:01:04.917Z,6389
2016-01-24T14:01:17.171Z,6332
2016-01-24T14:01:29.890Z,6262
2016-01-24T14:01:45.781Z,6195
2016-01-24T14:01:57.421Z,6148
2016-01-24T14:02:09.062Z,6109
2016-01-24T14:02:21.236Z,6080
2016-01-24T14:02:33.299Z,6068
2016-01-24T14:02:44.971Z,6049
2016-01-24T14:02:57.205Z,6039
2016-01-24T14:03:09.440Z,6046
2016-01-24T14:03:21.708Z,6051
2016-01-24T14:03:35.255Z,6072
2016-01-24T14:03:47.505Z,6092
2016-01-24T14:03:59.241Z,6113
2016-01-24T14:04:10.975Z,6130
2016-01-24T14:04:22.665Z,6161
2016-01-24T14:04:34.477Z,6179
2016-01-24T14:04:46.133Z,6200
2016-01-24T14:04:58.383Z,6220
2016-01-24T14:05:11.055Z,6241
2016-01-24T14:05:22.699Z,6264
2016-01-24T14:05:34.372Z,6277
2016-01-24T14:05:46.153Z,6292
2016-01-24T14:05:58.372Z,6308
2016-01-24T14:06:10.481Z,6323
2016-01-24T14:06:22.234Z,6318
2016-01-24T14:06:34.531Z,6328
2016-01-24T14:06:46.797Z,6328
2016-01-24T14:06:58.515Z,6321
2016-01-24T14:07:10.953Z,6323
2016-01-24T14:07:22.753Z,6316
2016-01-24T14:07:35.503Z,6305
2016-01-24T14:07:47.659Z,6308
2016-01-24T14:07:59.846Z,6297
2016-01-24T14:08:11.565Z,6286
2016-01-24T14:08:23.381Z,6265
2016-01-24T14:08:35.068Z,6257
2016-01-24T14:08:47.084Z,6239
2016-01-24T14:08:59.443Z,6212
2016-01-24T14:09:12.318Z,6175
2016-01-24T14:09:23.962Z,6144
2016-01-24T14:09:35.977Z,6091
2016-01-24T14:09:47.665Z,6045
2016-01-24T14:09:59.276Z,5990
2016-01-24T14:10:11.448Z,5930
2016-01-24T14:10:23.528Z,5860
2016-01-24T14:10:35.638Z,5774
2016-01-24T14:10:47.356Z,5699
2016-01-24T14:10:59.106Z,5638
2016-01-24T14:11:11.184Z,5555
2016-01-24T14:11:23.440Z,5475
2016-01-24T14:11:35.440Z,5416
2016-01-24T14:11:47.487Z,5333
2016-01-24T14:11:59.769Z,5275
2016-01-24T14:12:12.050Z,5195
2016-01-24T14:12:24.677Z,5115
2016-01-24T14:12:36.396Z,5053
2016-01-24T14:12:48.177Z,5000
2016-01-24T14:12:59.786Z,4932
2016-01-24T14:13:11.521Z,4883
2016-01-24T14:13:24.491Z,4832
2016-01-24T14:13:36.585Z,4798
2016-01-24T14:13:48.757Z,4773
2016-01-24T14:14:01.007Z,4742
2016-01-24T14:14:12.601Z,4721
2016-01-24T14:14:24.369Z,4706
2016-01-24T14:14:36.057Z,4701
2016-01-24T14:14:48.401Z,4704
2016-01-24T14:15:01.307Z,4693
2016-01-24T14:15:12.963Z,4693
2016-01-24T14:15:24.497Z,4701
2016-01-24T14:15:36.107Z,4709
2016-01-24T14:15:48.139Z,4714
2016-01-24T14:15:59.764Z,4729
2016-01-24T14:16:15.592Z,4739
2016-01-24T14:16:27.892Z,4752
2016-01-24T14:16:39.395Z,4775
2016-01-24T14:16:51.051Z,4798
2016-01-24T14:17:03.817Z,4808
2016-01-24T14:17:16.020Z,4839
2016-01-24T14:17:27.867Z,4871
2016-01-24T14:17:39.929Z,4888
2016-01-24T14:17:52.007Z,4917
2016-01-24T14:18:04.226Z,4969
2016-01-24T14:18:16.570Z,4995
2016-01-24T14:18:28.697Z,5034
2016-01-24T14:18:40.322Z,5062
2016-01-24T14:18:51.947Z,5093
2016-01-24T14:19:03.634Z,5114
2016-01-24T14:19:15.650Z,5137
2016-01-24T14:19:27.434Z,5153
2016-01-24T14:19:39.200Z,5160
2016-01-24T14:19:51.293Z,5158
2016-01-24T14:20:03.170Z,5147
2016-01-24T14:20:15.061Z,5147
2016-01-24T14:20:26.767Z,5147
2016-01-24T14:20:38.486Z,5147
2016-01-24T14:20:50.220Z,5144
2016-01-24T14:21:01.845Z,5144
2016-01-24T14:21:13.877Z,5133
2016-01-24T14:21:25.426Z,5147
2016-01-24T14:21:37.396Z,5139
2016-01-24T14:21:49.927Z,5142
2016-01-24T14:22:02.459Z,5134
2016-01-24T14:22:14.380Z,5116
2016-01-24T14:22:26.445Z,5124
2016-01-24T14:22:38.132Z,5112
2016-01-24T14:22:49.773Z,5096
2016-01-24T14:23:01.539Z,5094
2016-01-24T14:23:13.226Z,5089
2016-01-24T14:23:26.322Z,5084
2016-01-24T14:23:37.947Z,5079
2016-01-24T14:23:49.509Z,5075
2016-01-24T14:24:02.197Z,5070
2016-01-24T14:24:13.884Z,5048
2016-01-24T14:24:25.575Z,5051
2016-01-24T14:24:37.217Z,5043
2016-01-24T14:24:48.763Z,5025
2016-01-24T14:25:00.904Z,4998
2016-01-24T14:25:12.529Z,4975
2016-01-24T14:25:25.391Z,4933
2016-01-24T14:25:39.891Z,4878
2016-01-24T14:25:52.188Z,4845
2016-01-24T14:26:04.770Z,4797
2016-01-24T14:26:16.489Z,4489
2016-01-24T14:26:28.507Z,4448
2016-01-24T14:26:40.272Z,4407
2016-01-24T14:26:51.897Z,4366
2016-01-24T14:27:03.507Z,4336
2016-01-24T14:27:17.413Z,4527
2016-01-24T14:27:29.183Z,4447
2016-01-24T14:27:41.183Z,4202
2016-01-24T14:27:53.980Z,4161
2016-01-24T14:28:06.323Z,4131
2016-01-24T14:28:18.183Z,4095
2016-01-24T14:28:31.153Z,4059
2016-01-24T14:28:43.450Z,4038
2016-01-24T14:28:55.075Z,4026
2016-01-24T14:29:08.247Z,4024
2016-01-24T14:29:21.188Z,4042
2016-01-24T14:29:34.313Z,4102
2016-01-24T14:29:47.078Z,4240
2016-01-24T14:29:58.828Z,4237
2016-01-24T14:30:10.531Z,4248
2016-01-24T14:30:22.225Z,4248
2016-01-24T14:30:33.819Z,4248
2016-01-24T14:30:45.803Z,4248
2016-01-24T14:30:57.850Z,4240
2016-01-24T14:31:09.444Z,4229
2016-01-24T14:31:21.100Z,4222
2016-01-24T14:31:33.212Z,4225
2016-01-24T16:43:15.016Z,8
2016-01-24T16:43:27.581Z,1
2016-01-24T16:43:40.878Z,8
2016-01-24T16:43:53.081Z,8
2016-01-24T16:44:04.878Z,8
2016-01-24T16:44:16.629Z,8
2016-01-24T16:44:28.724Z,8
2016-01-24T16:44:41.162Z,8
2016-01-24T16:44:52.818Z,8
2016-01-24T16:45:04.912Z,8
2016-01-24T16:45:16.959Z,8
2016-01-24T16:45:28.618Z,8
2016-01-24T16:45:41.745Z,8
2016-01-24T16:45:54.604Z,8
2016-01-24T16:46:07.417Z,8
2016-01-24T16:46:19.229Z,8
2016-01-24T16:46:30.794Z,8
2016-01-24T16:46:44.106Z,8
2016-01-24T16:46:56.263Z,8
2016-01-24T16:47:08.044Z,8
2016-01-24T16:47:20.044Z,8
2016-01-24T16:47:32.984Z,0
2016-01-24T16:47:44.734Z,0
2016-01-24T16:47:57.719Z,0
2016-01-24T16:48:09.859Z,0
2016-01-24T16:48:22.016Z,0
2016-01-24T16:48:33.736Z,0
2016-01-24T16:48:45.911Z,0
2016-01-24T16:48:58.255Z,0
2016-01-24T16:49:10.411Z,0
2016-01-24T16:49:22.849Z,0
2016-01-24T16:49:35.242Z,0
2016-01-24T16:49:48.524Z,0
2016-01-24T16:50:01.805Z,0
2016-01-24T16:50:16.479Z,0
2016-01-24T16:50:28.119Z,0
2016-01-24T16:50:40.107Z,0
2016-01-24T16:50:53.341Z,0
2016-01-24T16:51:06.372Z,0
2016-01-24T16:51:19.435Z,0
2016-01-24T16:51:31.485Z,0
2016-01-24T16:51:43.719Z,15
2016-01-24T16:51:56.110Z,15
2016-01-24T16:52:12.297Z,15
2016-01-24T16:52:23.922Z,15
2016-01-24T16:52:37.706Z,15
2016-01-24T16:52:54.378Z,15
2016-01-24T16:53:07.956Z,15
2016-01-24T16:53:27.222Z,15
2016-01-24T16:53:39.708Z,15
2016-01-24T16:53:52.177Z,15
2016-01-24T16:54:03.958Z,15
2016-01-24T16:54:19.130Z,15
2016-01-24T16:54:30.698Z,15
2016-01-24T16:54:42.448Z,15
2016-01-24T16:54:54.260Z,15
2016-01-24T16:55:07.120Z,15
2016-01-24T16:55:20.807Z,15
2016-01-24T16:55:33.279Z,15
2016-01-24T16:55:45.669Z,15
2016-01-24T16:55:57.623Z,15
2016-01-24T16:56:09.374Z,15
2016-01-24T16:56:21.905Z,15
2016-01-24T16:56:34.641Z,15
2016-01-24T16:56:46.782Z,15
2016-01-24T16:56:59.204Z,15
2016-01-24T16:57:11.235Z,15
2016-01-24T16:57:23.407Z,15
2016-01-24T16:57:35.957Z,15
2016-01-24T16:57:48.191Z,15
2016-01-24T16:57:59.785Z,15
2016-01-24T16:58:11.394Z,15
2016-01-24T16:58:23.566Z,15
2016-01-24T16:58:35.600Z,15
2016-01-24T16:58:48.178Z,15
2016-01-24T16:59:00.867Z,15
2016-01-24T16:59:14.617Z,15
2016-01-24T16:59:26.742Z,15
2016-01-24T16:59:38.886Z,15
2016-01-24T16:59:51.729Z,0
2016-01-24T17:00:04.276Z,15
2016-01-24T17:00:16.886Z,0
2016-01-24T17:00:29.170Z,15
2016-01-24T17:00:41.045Z,0
2016-01-24T17:00:53.435Z,0
2016-01-24T17:01:05.170Z,0
2016-01-24T17:01:17.435Z,0
2016-01-24T17:01:29.642Z,0
2016-01-24T17:01:42.017Z,0
2016-01-24T17:01:53.642Z,0
2016-01-24T17:02:05.892Z,0
2016-01-24T17:02:18.032Z,0
2016-01-24T17:02:29.598Z,0
2016-01-24T17:02:41.863Z,0
2016-01-24T17:02:54.582Z,0
2016-01-24T17:03:06.488Z,0
2016-01-24T17:03:19.941Z,0
2016-01-24T17:03:32.290Z,0
2016-01-24T17:03:44.025Z,0
2016-01-24T17:03:55.743Z,0
2016-01-24T17:04:07.400Z,0
2016-01-24T17:04:19.056Z,0
2016-01-24T17:04:30.667Z,0
2016-01-24T17:04:46.542Z,0
2016-01-24T17:04:58.544Z,0
2016-01-24T17:05:10.403Z,0
2016-01-24T17:05:23.622Z,0
2016-01-24T17:05:39.405Z,0
2016-01-24T17:05:51.655Z,0
2016-01-24T17:06:03.937Z,0
2016-01-24T17:06:16.202Z,0
2016-01-24T17:06:27.923Z,0
2016-01-24T17:06:39.489Z,0
2016-01-24T17:06:51.067Z,0
2016-01-24T17:07:03.114Z,0
2016-01-24T17:07:15.254Z,0
2016-01-24T17:07:27.785Z,0
2016-01-24T17:07:39.898Z,0
2016-01-24T17:07:51.993Z,0
2016-01-24T17:08:04.118Z,0
2016-01-24T17:08:15.868Z,0
2016-01-24T17:08:28.196Z,0
2016-01-24T17:08:40.416Z,0
2016-01-24T17:56:47.000Z,0
2016-01-24T17:56:59.344Z,0
2016-01-24T17:57:11.047Z,0
2016-01-24T17:57:23.172Z,0
2016-01-24T17:57:34.832Z,0
2016-01-24T17:57:46.519Z,0
2016-01-24T17:57:58.300Z,0
2016-01-24T17:58:10.082Z,0
2016-01-24T17:58:21.709Z,0
2016-01-24T17:58:33.507Z,0
2016-01-24T17:58:45.273Z,0
2016-01-24T17:58:57.757Z,0
2016-01-24T17:59:09.617Z,0
2016-01-24T17:59:21.289Z,0
2016-01-24T17:59:33.432Z,0
2016-01-24T17:59:46.010Z,0
2016-01-24T17:59:57.621Z,0
2016-01-24T18:00:09.355Z,0
2016-01-24T18:00:21.105Z,0
2016-01-24T18:00:32.935Z,0
2016-01-24T18:00:45.076Z,0
2016-01-24T18:00:57.810Z,0
2016-01-24T18:01:09.545Z,0
2016-01-24T18:01:22.232Z,0
2016-01-24T18:01:34.221Z,0
2016-01-24T18:01:48.486Z,0
2016-01-24T18:02:01.408Z,0
2016-01-24T18:02:14.189Z,0
2016-01-24T18:02:26.111Z,0
2016-01-24T18:02:40.504Z,0
2016-01-24T18:02:52.974Z,0
2016-01-24T18:03:11.818Z,0
2016-01-24T18:03:25.396Z,0
2016-01-24T18:03:38.134Z,0
2016-01-24T18:03:51.274Z,0
2016-01-24T18:04:03.587Z,0
2016-01-24T18:04:16.024Z,10
2016-01-24T18:04:29.073Z,9
2016-01-24T18:04:41.295Z,9
2016-01-24T18:04:55.295Z,10
2016-01-24T18:05:07.764Z,10
2016-01-24T18:05:19.842Z,10
2016-01-24T18:05:33.094Z,3
2016-01-24T18:05:44.797Z,9
2016-01-24T18:05:57.219Z,9
2016-01-24T18:06:10.047Z,9
2016-01-24T18:06:25.047Z,9
2016-01-24T18:06:36.644Z,9
2016-01-24T18:06:48.237Z,3
2016-01-24T18:06:59.878Z,9
2016-01-24T18:07:12.331Z,9
2016-01-24T18:07:24.723Z,9
2016-01-24T18:07:36.756Z,9
2016-01-24T18:07:49.084Z,9
2016-01-24T18:08:01.131Z,9
2016-01-24T18:08:13.522Z,9
2016-01-24T18:08:25.490Z,9
2016-01-24T18:08:37.837Z,9
2016-01-24T18:08:52.775Z,9
2016-01-24T18:09:05.525Z,9
2016-01-24T18:09:19.400Z,9
2016-01-24T18:09:32.353Z,18
2016-01-24T18:09:44.700Z,18
2016-01-24T18:09:56.871Z,18
2016-01-24T18:10:09.153Z,18
2016-01-24T18:10:21.294Z,18
2016-01-24T18:10:33.391Z,18
2016-01-24T18:10:45.188Z,18
2016-01-24T18:10:57.172Z,18
2016-01-24T18:11:09.610Z,18
2016-01-24T18:11:22.188Z,18
2016-01-24T18:11:35.112Z,18
2016-01-24T18:11:47.896Z,18
2016-01-24T18:12:00.146Z,18
2016-01-24T18:12:12.412Z,18
2016-01-24T18:12:24.802Z,18
2016-01-24T18:12:37.414Z,18
2016-01-24T18:12:50.164Z,18
2016-01-24T18:13:01.945Z,18
2016-01-24T18:13:13.617Z,3
2016-01-24T18:13:26.523Z,0
2016-01-24T18:13:38.229Z,0
2016-01-24T18:13:50.088Z,0
2016-01-24T18:14:02.260Z,0
2016-01-24T18:14:14.479Z,0
2016-01-24T18:14:26.182Z,0
2016-01-24T18:14:38.295Z,0
2016-01-24T18:14:50.484Z,0
2016-01-24T18:15:02.236Z,0
2016-01-24T18:15:14.493Z,0
2016-01-24T18:15:27.087Z,0
2016-01-24T18:15:39.746Z,0
2016-01-24T18:15:51.511Z,0
2016-01-24T18:16:07.886Z,0
2016-01-24T18:16:20.231Z,0
2016-01-24T18:16:33.531Z,0
2016-01-24T18:16:45.312Z,0
2016-01-24T18:16:57.172Z,0
2016-01-24T18:17:08.859Z,0
2016-01-24T18:17:20.984Z,0
2016-01-24T18:17:32.703Z,0
2016-01-24T18:17:44.377Z,0
2016-01-24T18:17:56.049Z,0
2016-01-24T18:18:08.721Z,0
2016-01-24T18:18:20.924Z,0
2016-01-24T18:18:33.692Z,0
2016-01-24T18:18:47.333Z,0
2016-01-24T18:19:00.255Z,0
2016-01-24T18:19:12.898Z,0
2016-01-24T18:19:24.758Z,0
2016-01-24T18:19:36.714Z,0
2016-01-24T18:19:48.745Z,0
2016-01-24T18:20:00.448Z,0
2016-01-24T18:20:13.323Z,0
2016-01-24T18:20:24.979Z,0
2016-01-24T18:20:37.200Z,0
2016-01-24T18:20:48.998Z,0
2016-01-24T18:21:00.607Z,0